Aviation Digital Data Service (ADDS)

Output produced by METARs form (1620 UTC 04 August 2021)
found at http://www.aviationweather.gov/metar/data/
 
METAR text: KSNA 041553Z VRB03KT 10SM CLR 22/16 A2991 RMK AO2 SLP127 T02220161
Conditions at: KSNA (COSTA MESA , CA, US) observed 1553 UTC 04 August 2021
Temperature: 22.2°C (72°F)
Dewpoint: 16.1°C (61°F) [RH = 68%]
Pressure (altimeter): 29.91 inches Hg (1013.0 mb)
[Sea-level pressure: 1012.7 mb]
Winds: variable direction winds at 3 MPH (3 knots; 1.5 m/s)
Visibility: 10 or more miles (16+ km)
Ceiling: at least 12,000 feet AGL
Clouds: sky clear below 12,000 feet AGL
Weather: no significant weather observed at this time

METAR text: KSNA 041453Z 21003KT 7SM CLR 21/16 A2991 RMK AO2 SLP127 T02060161 51009
Conditions at: KSNA (COSTA MESA , CA, US) observed 1453 UTC 04 August 2021
Temperature: 20.6°C (69°F)
Dewpoint: 16.1°C (61°F) [RH = 75%]
Pressure (altimeter): 29.91 inches Hg (1013.0 mb)
[Sea-level pressure: 1012.7 mb]
Winds: from the SSW (210 degrees) at 3 MPH (3 knots; 1.5 m/s)
Visibility: 7 miles (11 km)
Ceiling: at least 12,000 feet AGL
Clouds: sky clear below 12,000 feet AGL
Weather: no significant weather observed at this time

Forecast for: KSNA (COSTA MESA , CA, US)
Text: KSNA 041130Z 0412/0512 VRB04KT P6SM SKC
Forecast period: 1200 to 1300 UTC 04 August 2021
Forecast type: FROM: standard forecast or significant change
Winds: variable direction winds at 5 MPH (4 knots; 2.1 m/s)
Visibility: 6 or more miles (10+ km)
Clouds: clear skies
Weather: no significant weather forecast for this period
Text: FM041300 VRB03KT P6SM VCFG FEW005
Forecast period: 1300 to 1500 UTC 04 August 2021
Forecast type: FROM: standard forecast or significant change
Winds: variable direction winds at 3 MPH (3 knots; 1.5 m/s)
Visibility: 6 or more miles (10+ km)
Ceiling: at least 12,000 feet AGL
Clouds: few clouds at 500 feet AGL
Weather: VCFG  (fog in vicinity)
Text: FM041500 VRB03KT P6SM SKC
Forecast period: 1500 to 1900 UTC 04 August 2021
Forecast type: FROM: standard forecast or significant change
Winds: variable direction winds at 3 MPH (3 knots; 1.5 m/s)
Visibility: 6 or more miles (10+ km)
Clouds: clear skies
Weather: no significant weather forecast for this period
Text: FM041900 22010KT P6SM SKC
Forecast period: 1900 UTC 04 August 2021 to 0300 UTC 05 August 2021
Forecast type: FROM: standard forecast or significant change
Winds: from the SW (220 degrees) at 12 MPH (10 knots; 5.1 m/s)
Visibility: 6 or more miles (10+ km)
Clouds: clear skies
Weather: no significant weather forecast for this period
Text: FM050300 VRB05KT P6SM SKC
Forecast period: 0300 to 1200 UTC 05 August 2021
Forecast type: FROM: standard forecast or significant change
Winds: variable direction winds at 6 MPH (5 knots; 2.6 m/s)
Visibility: 6 or more miles (10+ km)
Clouds: clear skies
Weather: no significant weather forecast for this period